createdAt,value
2022-12-03T17:32:44.150Z,73.00
2022-12-03T17:35:20.614Z,1.00
2022-12-03T17:37:56.360Z,1.70
2022-12-03T17:40:31.636Z,1.00
2022-12-03T17:43:07.106Z,1.00
2022-12-03T17:45:43.808Z,1.00
2022-12-03T17:48:21.883Z,1.00
2022-12-03T17:50:58.192Z,1.00
2022-12-03T17:53:33.634Z,27.50
2022-12-03T17:56:09.780Z,40.90
2022-12-03T17:58:45.139Z,14.00
2022-12-03T18:01:20.704Z,17.10
2022-12-03T18:04:02.011Z,1.00
2022-12-03T18:06:37.883Z,1.00
2022-12-03T18:09:13.351Z,1.00
2022-12-03T18:11:48.886Z,25.60
2022-12-03T18:14:24.587Z,32.40
2022-12-03T18:17:00.129Z,26.30
2022-12-03T18:19:38.186Z,24.90
2022-12-03T18:22:13.864Z,3.70
2022-12-03T18:24:52.039Z,1.00
2022-12-03T18:27:28.033Z,1.00
2022-12-03T18:30:03.678Z,1.00
2022-12-03T18:32:39.280Z,1.00
2022-12-03T18:35:18.172Z,1.00
2022-12-03T18:37:54.442Z,14.90
2022-12-03T18:40:30.530Z,37.30
2022-12-03T18:43:08.932Z,30.10
2022-12-03T18:45:44.756Z,31.40
2022-12-03T18:48:22.173Z,33.30
2022-12-03T18:51:00.288Z,20.60
2022-12-03T18:53:35.688Z,16.90
2022-12-03T18:56:11.818Z,29.70
2022-12-03T18:58:47.483Z,54.90
2022-12-03T19:01:25.497Z,79.20
2022-12-03T19:04:01.646Z,93.30
2022-12-03T19:06:40.110Z,65.70
2022-12-03T19:09:15.936Z,56.00
2022-12-03T19:11:51.534Z,68.40
2022-12-03T19:14:27.120Z,84.80
2022-12-03T19:17:02.500Z,96.40
2022-12-03T19:19:37.997Z,99.10
2022-12-03T19:22:16.125Z,99.90
2022-12-03T19:24:51.769Z,99.90
2022-12-03T19:27:27.158Z,99.90
2022-12-03T19:30:02.666Z,97.10
2022-12-03T19:32:38.235Z,90.20
2022-12-03T19:35:13.699Z,87.10
2022-12-03T19:37:52.045Z,96.70
2022-12-03T19:40:27.618Z,91.50
2022-12-03T19:43:02.966Z,12.90
2022-12-03T19:45:39.452Z,1.00
2022-12-03T19:48:14.986Z,14.40
2022-12-03T19:51:13.264Z,18.10
2022-12-03T19:53:51.833Z,45.10
2022-12-03T19:56:30.484Z,28.10
2022-12-03T19:59:08.062Z,47.90
2022-12-03T20:01:44.356Z,55.70
2022-12-03T20:04:19.958Z,23.90
2022-12-03T20:06:55.994Z,1.00
2022-12-03T20:09:35.008Z,6.70
2022-12-03T20:12:10.837Z,14.60
2022-12-03T20:14:46.631Z,26.90
2022-12-03T20:17:22.003Z,43.60
2022-12-03T20:19:57.850Z,48.50
2022-12-03T20:22:34.242Z,39.40
2022-12-03T20:25:14.106Z,28.70
2022-12-03T20:27:49.674Z,40.30
2022-12-03T20:30:25.397Z,50.40
2022-12-03T20:33:00.727Z,70.60
2022-12-03T20:35:36.879Z,68.30
2022-12-03T20:38:12.380Z,92.10
2022-12-03T20:40:50.468Z,96.10
2022-12-03T20:43:26.022Z,85.70
2022-12-03T20:46:09.785Z,75.20
2022-12-03T20:48:47.126Z,53.50
2022-12-03T20:51:25.311Z,34.60
2022-12-03T20:54:02.947Z,44.00
2022-12-03T20:56:42.323Z,50.10
2022-12-03T20:59:21.093Z,36.40
2022-12-03T21:01:57.311Z,46.40
2022-12-03T21:04:34.151Z,62.20
2022-12-03T21:07:10.232Z,54.20
2022-12-03T21:09:45.698Z,47.30
2022-12-03T21:12:25.735Z,23.90
2022-12-03T21:15:01.119Z,35.70
2022-12-03T21:17:37.028Z,29.90
2022-12-03T21:20:16.679Z,38.60
2022-12-03T21:22:57.933Z,19.90
2022-12-03T21:25:33.578Z,7.10
2022-12-03T21:28:13.039Z,1.00
2022-12-03T21:30:48.801Z,8.80
2022-12-03T21:33:24.439Z,6.90
2022-12-03T21:36:01.057Z,11.30
2022-12-03T21:38:37.647Z,25.60
2022-12-03T21:41:14.298Z,39.80
2022-12-03T21:43:55.631Z,57.20
2022-12-03T21:47:09.455Z,55.20
2022-12-03T21:49:27.128Z,57.00
2022-12-03T21:52:02.633Z,40.50
2022-12-03T21:54:40.300Z,55.40
2022-12-03T21:57:16.153Z,76.80
2022-12-03T21:59:54.415Z,74.10
2022-12-03T22:02:30.691Z,90.80
2022-12-03T22:05:06.263Z,93.40
2022-12-03T22:07:42.920Z,93.80
2022-12-03T22:10:18.768Z,91.90
2022-12-03T22:12:54.228Z,85.80
2022-12-03T22:15:32.754Z,94.10
2022-12-03T22:18:08.602Z,99.70
2022-12-03T22:20:45.508Z,99.90
2022-12-03T22:23:20.911Z,98.30
2022-12-03T22:26:01.844Z,99.90
2022-12-03T22:28:38.402Z,99.90
2022-12-03T22:31:18.598Z,99.90
2022-12-03T22:33:54.381Z,99.90
2022-12-03T22:36:29.910Z,99.90
2022-12-03T22:39:05.892Z,99.90
2022-12-03T22:41:42.011Z,99.90
2022-12-03T22:44:17.657Z,99.90
2022-12-03T22:46:55.868Z,99.90
2022-12-03T22:49:31.595Z,99.90
2022-12-03T22:52:07.091Z,99.90
2022-12-03T22:54:43.014Z,99.90
2022-12-03T22:57:18.398Z,99.90
2022-12-03T22:59:54.042Z,99.90
2022-12-03T23:02:32.602Z,99.90
2022-12-03T23:05:09.700Z,99.90
2022-12-03T23:07:45.110Z,99.90
2022-12-03T23:10:20.837Z,99.90
2022-12-03T23:12:56.912Z,99.90
2022-12-03T23:15:32.550Z,99.90
2022-12-03T23:18:10.856Z,99.90
2022-12-03T23:20:46.997Z,99.90
2022-12-03T23:23:24.051Z,99.90
2022-12-03T23:26:00.680Z,99.90
2022-12-03T23:28:38.960Z,99.90
2022-12-03T23:31:21.644Z,99.90
2022-12-03T23:34:00.694Z,99.90
2022-12-03T23:36:37.094Z,99.90
2022-12-03T23:39:12.719Z,99.90
2022-12-03T23:41:48.721Z,99.90
2022-12-03T23:44:24.090Z,99.90
2022-12-03T23:46:59.597Z,99.90
2022-12-03T23:49:38.045Z,99.90
2022-12-03T23:52:14.081Z,99.90
2022-12-03T23:54:49.566Z,99.90
2022-12-03T23:57:25.016Z,99.90
